Time;durP1;ratioP1;P1;durP2;ratioP2;P2;SDS_P1;SDS_P2;PMS_P1;PMS_P2;Temp;Humidity;BMP_temperature;BMP_pressure;BME280_temperature;BME280_humidity;BME280_pressure;Samples;Min_cycle;Max_cycle;Signal;HPM_P1;HPM_P2
2021/07/06 00:26:52;;;;;;;;;;;;;;;;;;;;;
2021/07/06 00:29:34;;;;;;;11.18;9.30;;;614.50;2432.00;;;;;;4768220;30;20043;-85
2021/07/06 00:35:43;;;;;;;;;;;;;;;;;;;;;
2021/07/06 00:38:30;;;;;;;11.77;8.95;;;614.50;2432.00;;;;;;4746818;30;20054;-85
2021/07/06 00:41:47;;;;;;;;;;;;;;;;;;;;;
2021/07/06 00:44:53;;;;;;;11.30;8.40;;;614.40;2432.00;;;;;;4703464;30;20060;-85
2021/07/06 00:48:08;;;;;;;9.90;8.88;;;614.40;2432.00;;;;;;4772078;30;20028;-86
2021/07/06 00:50:54;;;;;;;11.73;9.50;;;614.40;2432.00;;;;;;4771914;30;20036;-85
2021/07/06 00:53:35;;;;;;;10.00;9.02;;;589.70;2432.00;;;;;;4771872;30;20119;-85
2021/07/06 00:56:09;;;;;;;12.60;9.38;;;614.50;2432.00;;;;;;4771528;30;20035;-84
2021/07/06 00:59:19;;;;;;;10.05;8.93;;;589.70;2432.00;;;;;;4784973;29;20042;-85
2021/07/06 01:02:37;;;;;;;10.80;9.15;;;614.40;2432.00;;;;;;4793994;29;20031;-84
2021/07/06 01:06:01;;;;;;;9.77;8.75;;;589.70;2432.00;;;;;;4823787;29;20496;-85
2021/07/06 01:08:46;;;;;;;11.05;9.10;;;589.60;2432.00;;;;;;4765463;29;20035;-86
2021/07/06 01:11:35;;;;;;;11.70;9.63;;;589.60;2432.00;;;;;;4793278;29;20077;-85
2021/07/06 01:14:14;;;;;;;9.90;8.88;;;564.10;2432.00;;;;;;4802568;29;20094;-85
2021/07/06 01:16:51;;;;;;;10.35;9.25;;;589.60;2432.00;;;;;;4793708;29;20476;-85
2021/07/06 01:19:37;;;;;;;9.82;8.88;;;589.50;2432.00;;;;;;4793849;29;20039;-85
2021/07/06 01:22:17;;;;;;;12.35;9.15;;;589.50;2432.00;;;;;;4793908;29;20030;-84
2021/07/06 01:24:53;;;;;;;11.98;9.60;;;589.40;2432.00;;;;;;4792293;29;20055;-85
2021/07/06 01:27:24;;;;;;;10.95;9.05;;;589.50;2432.00;;;;;;4792977;29;20101;-85
2021/07/06 01:29:51;;;;;;;10.50;9.30;;;589.40;2432.00;;;;;;4793155;29;20023;-85
2021/07/06 01:32:20;;;;;;;9.80;8.90;;;614.80;2432.00;;;;;;4793341;29;20045;-85
2021/07/06 01:34:54;;;;;;;11.63;10.10;;;589.50;2432.00;;;;;;4792947;29;20079;-85
2021/07/06 01:37:21;;;;;;;12.52;9.85;;;589.50;2432.00;;;;;;4793307;29;20026;-84
2021/07/06 01:40:38;;;;;;;10.95;9.48;;;589.50;2432.00;;;;;;4792672;29;20023;-85
2021/07/06 01:44:10;;;;;;;11.23;9.93;;;589.50;2432.00;;;;;;4806782;29;20058;-85
2021/07/06 01:50:45;;;;;;;11.35;9.75;;;589.50;2432.00;;;;;;4623739;31;20070;-85
2021/07/06 01:56:50;;;;;;;10.13;9.15;;;589.50;2432.00;;;;;;4775308;29;20393;-84
2021/07/06 01:59:25;;;;;;;10.35;9.35;;;589.50;2432.00;;;;;;4792482;29;20023;-85
2021/07/06 02:04:59;;;;;;;9.88;8.88;;;589.50;2432.00;;;;;;4793272;29;20066;-85
2021/07/06 03:01:22;;;;;;;10.63;9.48;;;589.20;2432.00;;;;;;4802702;29;20039;-85
2021/07/06 03:03:53;;;;;;;12.60;9.68;;;589.20;2432.00;;;;;;4792474;29;20046;-86
2021/07/06 03:06:57;;;;;;;;;;;;;;;;;;;;;
2021/07/06 03:13:54;;;;;;;11.43;10.02;;;589.20;2432.00;;;;;;4769376;30;20028;-85
2021/07/06 03:16:26;;;;;;;11.98;10.18;;;589.10;2432.00;;;;;;4755137;30;20032;-86
2021/07/06 03:49:51;;;;;;;12.15;10.45;;;589.10;2432.00;;;;;;4699932;30;20068;-85
2021/07/06 03:52:20;;;;;;;11.48;10.38;;;589.10;2432.00;;;;;;4699620;30;20037;-86
2021/07/06 03:54:51;;;;;;;11.88;10.60;;;589.10;2432.00;;;;;;4685086;30;20133;-86
2021/07/06 03:57:45;;;;;;;12.23;10.77;;;589.00;2432.00;;;;;;4685259;30;20146;-84
2021/07/06 04:00:17;;;;;;;13.35;11.98;;;588.90;2432.00;;;;;;4688412;30;20132;-85
2021/07/06 04:02:56;;;;;;;12.55;10.63;;;589.00;2432.00;;;;;;4685531;30;20518;-85
2021/07/06 04:36:02;;;;;;;12.05;10.88;;;589.10;2432.00;;;;;;4786652;30;21345;-86
2021/07/06 04:38:30;;;;;;;14.20;10.77;;;589.10;2432.00;;;;;;4772672;30;20074;-85
2021/07/06 04:40:56;;;;;;;16.73;10.48;;;589.10;2432.00;;;;;;4772331;30;20032;-83
2021/07/06 04:43:22;;;;;;;13.55;11.57;;;589.10;2432.00;;;;;;4773406;30;20036;-86
2021/07/06 05:02:53;;;;;;;13.38;11.10;;;589.30;2432.00;;;;;;4754061;30;20027;-82
2021/07/06 05:05:19;;;;;;;13.57;11.43;;;589.30;2432.00;;;;;;4754234;30;20032;-81
2021/07/06 05:07:50;;;;;;;16.42;11.40;;;589.40;2432.00;;;;;;4805517;29;20087;-84
2021/07/06 05:10:16;;;;;;;12.27;10.90;;;589.50;2432.00;;;;;;4775656;30;20059;-84
2021/07/06 05:12:41;;;;;;;13.68;11.18;;;589.60;2432.00;;;;;;4775543;30;20062;-82
2021/07/06 05:15:08;;;;;;;14.52;11.30;;;589.60;2432.00;;;;;;4775290;30;20031;-83
2021/07/06 05:17:34;;;;;;;13.30;11.88;;;589.70;2432.00;;;;;;4774735;30;20039;-84
2021/07/06 05:20:21;;;;;;;11.90;10.65;;;589.70;2432.00;;;;;;4775298;30;20491;-84
2021/07/06 05:22:46;;;;;;;14.27;11.63;;;589.70;2432.00;;;;;;4791099;30;20110;-84
2021/07/06 05:25:13;;;;;;;13.82;11.77;;;589.70;2432.00;;;;;;4774371;30;20066;-85
2021/07/06 05:27:53;;;;;;;13.30;11.95;;;589.00;2432.00;;;;;;4775595;30;20032;-85
2021/07/06 05:30:20;;;;;;;13.18;11.23;;;614.40;2432.00;;;;;;4775839;30;20141;-85
2021/07/06 05:32:54;;;;;;;13.15;11.85;;;614.50;2432.00;;;;;;4775358;30;20111;-86
2021/07/06 05:36:03;;;;;;;13.07;11.38;;;614.60;2432.00;;;;;;4775654;30;20034;-86
2021/07/06 05:38:29;;;;;;;14.90;11.48;;;614.60;2432.00;;;;;;4781389;30;20071;-85
2021/07/06 05:40:55;;;;;;;12.18;11.07;;;614.70;2432.00;;;;;;4804272;29;20092;-80
2021/07/06 05:43:22;;;;;;;18.48;13.05;;;614.70;2432.00;;;;;;4790607;29;20035;-84
2021/07/06 05:45:53;;;;;;;13.10;11.80;;;614.80;2432.00;;;;;;4804600;29;20019;-82
2021/07/06 05:48:19;;;;;;;13.95;10.95;;;614.90;2432.00;;;;;;4804533;29;20035;-83
2021/07/06 05:50:45;;;;;;;12.15;10.95;;;614.90;2432.00;;;;;;4789467;30;20023;-82
2021/07/06 05:53:11;;;;;;;18.85;11.35;;;615.00;2432.00;;;;;;4789250;29;20031;-82
2021/07/06 05:58:37;;;;;;;14.05;11.20;;;615.00;2432.00;;;;;;4768853;30;20035;-82
2021/07/06 06:01:35;;;;;;;12.05;10.52;;;615.00;2432.00;;;;;;4789053;29;20469;-81
2021/07/06 06:04:01;;;;;;;13.60;11.93;;;615.00;2432.00;;;;;;4803582;29;20108;-84
2021/07/06 06:06:36;;;;;;;12.80;11.43;;;615.00;2432.00;;;;;;4789086;29;20373;-84
2021/07/06 06:09:08;;;;;;;13.55;11.18;;;615.00;2432.00;;;;;;4772815;30;20039;-83
2021/07/06 06:18:59;;;;;;;12.65;11.38;;;615.20;2432.00;;;;;;4751095;30;20066;-83
2021/07/06 06:21:26;;;;;;;12.90;11.57;;;615.20;2432.00;;;;;;4752874;30;20054;-84
2021/07/06 06:24:50;;;;;;;15.18;12.50;;;615.20;2432.00;;;;;;4752847;30;20051;-83
2021/07/06 06:27:24;;;;;;;15.93;11.20;;;615.30;2432.00;;;;;;4737994;30;20040;-84
2021/07/06 06:29:50;;;;;;;12.10;10.82;;;640.10;2432.00;;;;;;4756421;30;20028;-83
2021/07/06 06:32:16;;;;;;;13.43;11.25;;;640.20;2432.00;;;;;;4789070;30;20372;-82
2021/07/06 06:35:23;;;;;;;12.85;11.63;;;640.30;2432.00;;;;;;4789004;30;20031;-82
2021/07/06 06:37:49;;;;;;;12.48;10.23;;;640.40;2432.00;;;;;;4791234;29;20082;-82
2021/07/06 06:40:15;;;;;;;13.25;11.23;;;640.50;2432.00;;;;;;4791638;29;20027;-82
2021/07/06 06:42:41;;;;;;;11.48;10.27;;;640.60;2432.00;;;;;;4791467;29;20058;-82
2021/07/06 06:45:09;;;;;;;15.40;11.93;;;640.70;2432.00;;;;;;4791639;29;20034;-82
2021/07/06 06:47:36;;;;;;;12.25;10.32;;;640.80;2432.00;;;;;;4791804;29;20371;-82
2021/07/06 06:50:04;;;;;;;17.90;12.35;;;640.80;2432.00;;;;;;4791566;29;20084;-82
2021/07/06 06:52:30;;;;;;;15.02;11.30;;;665.60;2432.00;;;;;;4806607;29;20062;-82
2021/07/06 06:54:59;;;;;;;16.38;11.23;;;665.60;2432.00;;;;;;4791509;29;20115;-84
2021/07/06 06:57:47;;;;;;;15.57;11.00;;;665.70;2432.00;;;;;;4791220;29;20117;-82
2021/07/06 07:00:14;;;;;;;11.25;10.05;;;665.90;2432.00;;;;;;4791426;29;20031;-81
2021/07/06 07:02:43;;;;;;;16.33;10.48;;;665.90;2432.00;;;;;;4807590;29;20050;-81
2021/07/06 07:05:09;;;;;;;12.15;10.95;;;666.00;2432.00;;;;;;4794475;29;20047;-82
2021/07/06 07:07:35;;;;;;;11.95;10.13;;;666.20;2432.00;;;;;;4791313;29;20035;-81
2021/07/06 07:10:00;;;;;;;11.52;10.43;;;666.20;2432.00;;;;;;4791361;29;20118;-81
2021/07/06 07:12:26;;;;;;;13.45;9.73;;;666.30;2432.00;;;;;;4790792;29;20038;-81
2021/07/06 07:14:52;;;;;;;16.75;11.20;;;666.40;2432.00;;;;;;4791208;29;20109;-84
2021/07/06 07:17:18;;;;;;;12.30;10.30;;;666.30;2432.00;;;;;;4791014;29;20019;-83
2021/07/06 07:19:47;;;;;;;11.40;10.30;;;666.30;2432.00;;;;;;4791167;29;20121;-85
2021/07/06 07:22:15;;;;;;;15.10;11.25;;;666.40;2432.00;;;;;;4791090;29;20091;-83
2021/07/06 07:24:41;;;;;;;11.93;10.35;;;666.50;2432.00;;;;;;4790669;29;20042;-84
2021/07/06 07:27:07;;;;;;;11.77;10.60;;;691.20;2432.00;;;;;;4791750;29;20025;-85
2021/07/06 07:29:34;;;;;;;11.57;10.38;;;691.30;2432.00;;;;;;4791625;29;20031;-84
2021/07/06 07:32:01;;;;;;;12.63;9.95;;;691.20;2432.00;;;;;;4791025;29;20114;-84
2021/07/06 07:34:27;;;;;;;12.07;10.88;;;691.20;2432.00;;;;;;4790929;29;20100;-82
2021/07/06 07:36:53;;;;;;;12.90;11.50;;;691.30;2432.00;;;;;;4790879;29;20051;-82
2021/07/06 07:39:19;;;;;;;13.60;12.20;;;691.30;2432.00;;;;;;4791087;29;20027;-84
2021/07/06 07:41:45;;;;;;;14.73;12.02;;;691.50;2432.00;;;;;;4807271;29;20517;-81
2021/07/06 07:44:12;;;;;;;15.15;12.68;;;691.50;2432.00;;;;;;4790931;29;20031;-82
2021/07/06 07:46:37;;;;;;;12.32;11.02;;;691.70;2432.00;;;;;;4807069;29;20070;-85
2021/07/06 07:49:04;;;;;;;13.85;10.93;;;691.80;2432.00;;;;;;4790511;29;20086;-82
2021/07/06 07:51:33;;;;;;;14.60;11.75;;;691.60;2432.00;;;;;;4790720;29;20039;-85
2021/07/06 07:53:58;;;;;;;16.30;12.02;;;692.00;2432.00;;;;;;4788612;29;20468;-83
2021/07/06 07:56:24;;;;;;;17.60;12.50;;;692.00;2432.00;;;;;;4788574;29;20033;-84
2021/07/06 07:58:50;;;;;;;16.38;13.80;;;692.00;2432.00;;;;;;4791020;29;20027;-85
2021/07/06 08:01:16;;;;;;;16.77;11.73;;;691.70;2432.00;;;;;;4790879;29;20027;-83
2021/07/06 08:03:42;;;;;;;13.73;11.90;;;691.80;2432.00;;;;;;4790876;29;20030;-84
2021/07/06 08:06:07;;;;;;;18.10;13.05;;;691.80;2432.00;;;;;;4806752;29;20030;-84
2021/07/06 08:08:33;;;;;;;13.32;11.93;;;692.10;2432.00;;;;;;4790967;29;20508;-83
2021/07/06 08:11:00;;;;;;;13.93;12.23;;;716.80;2432.00;;;;;;4791026;29;20038;-85
2021/07/06 08:13:27;;;;;;;17.10;14.00;;;716.90;2432.00;;;;;;4790847;29;20117;-87
2021/07/06 08:15:54;;;;;;;15.38;13.73;;;717.10;2432.00;;;;;;4807830;29;20026;-84
2021/07/06 08:18:20;;;;;;;17.40;14.73;;;717.00;2432.00;;;;;;4810151;29;20091;-82
2021/07/06 08:20:47;;;;;;;16.02;14.32;;;717.20;2432.00;;;;;;4809298;29;20031;-83
2021/07/06 08:23:13;;;;;;;15.40;13.18;;;717.30;2380.80;;;;;;4807727;29;20033;-83
2021/07/06 08:25:39;;;;;;;13.35;11.65;;;717.40;2406.40;;;;;;4796612;29;20027;-84
2021/07/06 08:28:08;;;;;;;20.27;12.85;;;717.40;2355.20;;;;;;4805627;29;20376;-83
2021/07/06 08:43:41;;;;;;;10.77;8.63;;;742.40;2329.60;;;;;;4732845;30;20140;-84
2021/07/06 08:46:27;;;;;;;10.82;8.90;;;717.60;2278.40;;;;;;4733304;30;20047;-84
2021/07/06 08:52:30;;;;;;;11.52;9.25;;;742.70;2278.40;;;;;;4728077;30;20081;-84
2021/07/06 08:54:56;;;;;;;11.93;9.20;;;742.40;2278.40;;;;;;4757131;29;20039;-83
2021/07/06 08:57:22;;;;;;;14.32;8.60;;;742.90;2252.80;;;;;;4790325;29;20085;-83
2021/07/06 08:59:49;;;;;;;8.98;7.43;;;743.00;2252.80;;;;;;4791507;29;20030;-83
2021/07/06 09:02:20;;;;;;;9.00;7.13;;;743.10;2150.40;;;;;;4793721;29;20460;-83
2021/07/06 09:04:50;;;;;;;8.20;6.47;;;742.80;2099.20;;;;;;4793660;29;20519;-85
2021/07/06 09:07:17;;;;;;;8.15;6.07;;;742.70;2048.00;;;;;;4809821;29;20029;-82
2021/07/06 09:09:43;;;;;;;9.50;6.45;;;743.00;2048.00;;;;;;4793410;29;20468;-83
2021/07/06 09:12:14;;;;;;;9.77;5.75;;;742.70;2048.00;;;;;;4793755;29;20037;-82
2021/07/06 09:14:48;;;;;;;10.15;5.43;;;743.10;1996.80;;;;;;4790943;29;20042;-85
2021/07/06 09:17:18;;;;;;;7.13;5.57;;;743.30;1945.60;;;;;;4793370;29;20034;-83
2021/07/06 09:19:46;;;;;;;7.20;5.70;;;768.00;1945.60;;;;;;4793608;29;20180;-83
2021/07/06 09:22:30;;;;;;;5.60;4.78;;;768.40;1920.00;;;;;;4793165;29;20109;-83
2021/07/06 09:25:07;;;;;;;7.40;5.75;;;768.60;1920.00;;;;;;4792824;29;20038;-81
2021/07/06 09:27:44;;;;;;;17.27;8.70;;;768.90;1843.20;;;;;;4792875;29;20125;-81
2021/07/06 09:30:22;;;;;;;7.18;5.20;;;793.70;1894.40;;;;;;4792565;29;20026;-81
2021/07/06 09:33:05;;;;;;;8.07;5.43;;;794.20;1843.20;;;;;;4791944;29;20031;-81
2021/07/06 09:35:31;;;;;;;7.32;6.10;;;819.90;1792.00;;;;;;4807901;29;20026;-81
2021/07/06 09:38:04;;;;;;;7.93;5.72;;;794.50;1843.20;;;;;;4822367;29;20503;-81
2021/07/06 09:40:36;;;;;;;9.85;6.90;;;794.50;1792.00;;;;;;4808117;29;20114;-82
2021/07/06 09:43:20;;;;;;;14.20;6.40;;;819.20;1817.60;;;;;;4807919;29;20030;-85
2021/07/06 09:45:57;;;;;;;15.65;10.95;;;819.40;1766.40;;;;;;4793085;29;20019;-86
2021/07/06 09:48:23;;;;;;;10.90;8.88;;;819.30;1766.40;;;;;;4793189;29;20046;-85
2021/07/06 09:50:49;;;;;;;8.57;6.82;;;794.40;1740.80;;;;;;4809331;29;20460;-84
2021/07/06 09:53:26;;;;;;;8.88;6.18;;;819.40;1740.80;;;;;;4822937;29;20479;-85
2021/07/06 09:55:52;;;;;;;7.75;6.15;;;819.50;1766.40;;;;;;4809125;29;20023;-84
2021/07/06 09:58:18;;;;;;;8.20;5.90;;;819.60;1740.80;;;;;;4807826;29;20023;-85
2021/07/06 10:00:44;;;;;;;7.60;5.40;;;819.80;1715.20;;;;;;4823029;29;20030;-84
2021/07/06 10:03:10;;;;;;;7.15;5.60;;;819.70;1715.20;;;;;;4822879;29;20085;-84
2021/07/06 10:05:36;;;;;;;8.02;5.97;;;819.80;1715.20;;;;;;4823114;29;20125;-85
2021/07/06 10:08:03;;;;;;;7.70;5.90;;;819.90;1715.20;;;;;;4807995;29;20026;-85
2021/07/06 10:10:28;;;;;;;10.05;6.40;;;819.80;1715.20;;;;;;4807538;29;20104;-85
2021/07/06 10:12:56;;;;;;;7.03;6.32;;;820.00;1766.40;;;;;;4822643;29;20066;-86
2021/07/06 10:15:23;;;;;;;7.30;5.95;;;819.90;1740.80;;;;;;4807513;29;20050;-86
2021/07/06 10:17:51;;;;;;;8.25;6.13;;;820.00;1715.20;;;;;;4807289;29;20025;-84
2021/07/06 10:20:26;;;;;;;9.57;5.95;;;844.80;1740.80;;;;;;4807418;29;20027;-84
2021/07/06 10:22:54;;;;;;;7.32;6.13;;;844.80;1715.20;;;;;;4808595;29;20026;-84
2021/07/06 10:25:26;;;;;;;9.60;6.15;;;845.00;1715.20;;;;;;4807302;29;20113;-84
2021/07/06 10:27:58;;;;;;;6.75;5.43;;;844.90;1715.20;;;;;;4807440;29;20035;-85
2021/07/06 10:30:29;;;;;;;9.25;6.10;;;844.90;1715.20;;;;;;4807108;29;20035;-84
2021/07/06 10:33:00;;;;;;;8.25;6.47;;;844.80;1715.20;;;;;;4807053;29;20022;-85
2021/07/06 10:35:46;;;;;;;9.00;5.68;;;845.20;1715.20;;;;;;4806968;29;20537;-84
2021/07/06 10:38:28;;;;;;;6.82;5.38;;;845.20;1689.60;;;;;;4821538;29;20552;-85
2021/07/06 10:40:54;;;;;;;14.68;5.65;;;845.40;1664.00;;;;;;4807316;29;20594;-86
2021/07/06 10:43:38;;;;;;;7.45;6.65;;;845.50;1664.00;;;;;;4796119;29;20121;-85
2021/07/06 10:46:22;;;;;;;7.78;6.22;;;845.30;1664.00;;;;;;4789153;30;20126;-84
2021/07/06 10:49:13;;;;;;;8.40;6.10;;;845.30;1689.60;;;;;;4804187;29;20022;-84
2021/07/06 10:51:39;;;;;;;7.80;6.88;;;845.30;1664.00;;;;;;4806022;29;20019;-83
2021/07/06 10:54:16;;;;;;;10.82;6.70;;;845.40;1638.40;;;;;;4822064;29;20035;-82
2021/07/06 10:56:52;;;;;;;7.47;6.63;;;845.50;1638.40;;;;;;4806865;29;20033;-85
2021/07/06 10:59:22;;;;;;;15.95;7.28;;;845.70;1638.40;;;;;;4806326;29;20030;-85
2021/07/06 11:01:57;;;;;;;8.13;5.78;;;845.70;1612.80;;;;;;4806238;29;20429;-81
2021/07/06 11:05:20;;;;;;;10.32;5.80;;;845.60;1587.20;;;;;;4806442;29;20466;-81
2021/07/06 11:07:29;;;;;;;6.45;5.40;;;870.40;1561.60;;;;;;4804633;29;20139;-84
2021/07/06 11:09:55;;;;;;;8.35;6.30;;;870.60;1561.60;;;;;;4821612;29;20091;-82
2021/07/06 11:12:22;;;;;;;12.52;7.82;;;870.70;1587.20;;;;;;4821362;29;20448;-82
2021/07/06 11:14:52;;;;;;;8.65;6.28;;;870.70;1561.60;;;;;;4806261;29;20030;-82
2021/07/06 11:17:38;;;;;;;8.25;5.93;;;870.70;1587.20;;;;;;4806379;29;20069;-83
2021/07/06 11:20:15;;;;;;;8.13;6.78;;;871.00;1561.60;;;;;;4806014;29;20035;-81
2021/07/06 11:22:56;;;;;;;9.13;6.13;;;871.10;1612.80;;;;;;4806319;29;20031;-82
2021/07/06 11:25:32;;;;;;;8.80;6.45;;;871.10;1536.00;;;;;;4806192;29;20027;-85
2021/07/06 11:28:12;;;;;;;7.68;6.35;;;871.00;1536.00;;;;;;4821368;29;20033;-83
2021/07/06 11:30:41;;;;;;;7.55;6.68;;;870.90;1536.00;;;;;;4806095;29;20026;-83
2021/07/06 11:33:18;;;;;;;10.68;8.18;;;870.90;1536.00;;;;;;4821517;29;20106;-82
2021/07/06 11:35:54;;;;;;;8.43;6.05;;;870.90;1536.00;;;;;;4806005;29;20099;-84
2021/07/06 11:38:38;;;;;;;8.43;5.88;;;871.10;1536.00;;;;;;4807216;29;20473;-84
2021/07/06 11:41:06;;;;;;;12.70;7.15;;;870.90;1510.40;;;;;;4790892;29;20117;-85
2021/07/06 11:43:33;;;;;;;9.60;7.95;;;871.30;1561.60;;;;;;4805852;29;20046;-82
2021/07/06 11:46:07;;;;;;;8.48;6.43;;;871.10;1536.00;;;;;;4806260;29;20052;-86
2021/07/06 11:48:38;;;;;;;15.38;6.85;;;870.80;1536.00;;;;;;4806102;29;20031;-85
2021/07/06 11:51:16;;;;;;;20.27;13.50;;;871.00;1561.60;;;;;;4807337;29;20080;-84
2021/07/06 11:53:52;;;;;;;8.65;7.53;;;871.30;1536.00;;;;;;4806005;29;20042;-85
2021/07/06 11:56:23;;;;;;;10.02;8.57;;;896.00;1510.40;;;;;;4821453;29;20023;-85
2021/07/06 11:58:49;;;;;;;10.18;6.75;;;896.00;1484.80;;;;;;4806142;29;20054;-87
2021/07/06 12:01:16;;;;;;;7.40;6.30;;;896.20;1510.40;;;;;;4821121;29;20062;-86
2021/07/06 12:03:42;;;;;;;9.05;6.45;;;896.30;1484.80;;;;;;4821149;29;20541;-81
2021/07/06 12:06:17;;;;;;;6.97;5.22;;;896.20;1459.20;;;;;;4806049;29;20034;-82
2021/07/06 12:08:49;;;;;;;6.55;5.75;;;896.00;1408.00;;;;;;4806219;29;20023;-84
2021/07/06 12:11:16;;;;;;;6.70;5.68;;;896.10;1433.60;;;;;;4805998;29;20088;-87
2021/07/06 12:13:42;;;;;;;10.20;5.22;;;896.30;1433.60;;;;;;4805982;29;20421;-83
2021/07/06 12:16:23;;;;;;;8.52;5.38;;;896.30;1356.80;;;;;;4821111;29;20053;-86
2021/07/06 12:18:49;;;;;;;8.95;5.60;;;896.60;1382.40;;;;;;4805946;29;20121;-85
2021/07/06 12:21:28;;;;;;;8.60;5.80;;;896.40;1408.00;;;;;;4821341;29;20068;-84
2021/07/06 12:23:56;;;;;;;8.70;5.65;;;896.30;1408.00;;;;;;4805616;29;20043;-85
2021/07/06 12:26:23;;;;;;;7.00;5.30;;;896.60;1408.00;;;;;;4805931;29;20035;-87
2021/07/06 12:28:49;;;;;;;9.73;5.45;;;896.60;1382.40;;;;;;4806130;29;20496;-88
2021/07/06 12:31:29;;;;;;;7.25;5.55;;;896.80;1356.80;;;;;;4805996;29;20038;-84
2021/07/06 12:34:03;;;;;;;9.68;5.57;;;896.90;1382.40;;;;;;4807043;29;20090;-82
2021/07/06 12:36:54;;;;;;;8.75;6.20;;;896.90;1408.00;;;;;;4824255;29;20027;-85
2021/07/06 12:39:44;;;;;;;8.82;6.15;;;896.90;1433.60;;;;;;4808810;29;20043;-88
2021/07/06 12:42:14;;;;;;;7.93;5.80;;;921.70;1408.00;;;;;;4809241;29;20027;-85
2021/07/06 12:44:54;;;;;;;7.40;6.43;;;896.90;1382.40;;;;;;4809438;29;20035;-86
2021/07/06 12:47:27;;;;;;;8.02;7.22;;;896.90;1356.80;;;;;;4809737;29;20023;-88
2021/07/06 12:53:47;;;;;;;9.50;7.22;;;921.70;1433.60;;;;;;4810974;29;20038;-90
2021/07/06 13:06:12;;;;;;;16.20;6.63;;;921.80;1382.40;;;;;;4782152;29;20047;-85
2021/07/06 13:08:38;;;;;;;6.78;5.63;;;921.70;1356.80;;;;;;4809371;29;20022;-81
2021/07/06 13:11:14;;;;;;;8.40;5.85;;;921.80;1408.00;;;;;;4823652;29;20373;-85
2021/07/06 13:13:40;;;;;;;6.93;6.05;;;921.70;1382.40;;;;;;4808567;29;20110;-86
2021/07/06 13:16:09;;;;;;;11.43;5.72;;;921.80;1356.80;;;;;;4824212;29;20118;-84
2021/07/06 13:18:48;;;;;;;7.43;5.78;;;921.60;1356.80;;;;;;4809195;29;20084;-84
2021/07/06 13:21:19;;;;;;;7.32;5.38;;;922.00;1382.40;;;;;;4824439;29;20035;-86
2021/07/06 13:23:46;;;;;;;7.83;5.37;;;921.80;1356.80;;;;;;4821154;29;20035;-83
2021/07/06 13:26:12;;;;;;;8.25;5.75;;;922.00;1356.80;;;;;;4805508;29;20034;-82
2021/07/06 13:28:39;;;;;;;7.70;5.50;;;922.10;1305.60;;;;;;4835467;29;20118;-84
2021/07/06 13:31:05;;;;;;;6.88;5.95;;;922.00;1331.20;;;;;;4814454;29;20056;-85
2021/07/06 13:33:34;;;;;;;11.23;7.90;;;922.00;1305.60;;;;;;4823684;29;20042;-85
2021/07/06 13:36:00;;;;;;;9.88;6.43;;;922.00;1331.20;;;;;;4808839;29;20027;-87
2021/07/06 13:38:27;;;;;;;6.70;5.60;;;922.00;1356.80;;;;;;4808502;29;20082;-86
2021/07/06 13:40:53;;;;;;;6.70;5.43;;;922.00;1305.60;;;;;;4808234;29;20028;-86
2021/07/06 13:43:20;;;;;;;8.70;5.93;;;922.00;1305.60;;;;;;4808437;29;20073;-87
2021/07/06 13:45:47;;;;;;;7.55;5.45;;;922.00;1331.20;;;;;;4807656;29;20023;-88
2021/07/06 13:48:13;;;;;;;7.97;6.55;;;922.00;1305.60;;;;;;4808422;29;20029;-87
2021/07/06 13:50:39;;;;;;;7.40;5.70;;;921.70;1331.20;;;;;;4808452;29;20034;-84
2021/07/06 13:53:05;;;;;;;11.00;7.15;;;921.80;1305.60;;;;;;4823182;29;20349;-85
2021/07/06 13:55:37;;;;;;;6.07;5.43;;;921.70;1331.20;;;;;;4823071;29;20528;-82
2021/07/06 13:58:09;;;;;;;7.30;6.50;;;921.70;1356.80;;;;;;4823304;29;20406;-85
2021/07/06 14:00:36;;;;;;;9.10;6.65;;;921.60;1382.40;;;;;;4808829;29;20491;-85
2021/07/06 14:03:07;;;;;;;11.25;8.05;;;921.70;1356.80;;;;;;4808116;29;20410;-85
2021/07/06 14:05:33;;;;;;;10.02;6.25;;;921.70;1382.40;;;;;;4807970;29;20069;-86
2021/07/06 14:07:59;;;;;;;8.30;5.78;;;921.70;1331.20;;;;;;4807773;29;20125;-86
2021/07/06 14:10:26;;;;;;;8.55;5.43;;;921.70;1331.20;;;;;;4808173;29;20034;-90
2021/07/06 14:12:56;;;;;;;7.05;5.75;;;921.70;1331.20;;;;;;4808492;29;20018;-90
2021/07/06 14:15:22;;;;;;;7.05;5.38;;;921.80;1331.20;;;;;;4808279;29;20035;-87
2021/07/06 14:17:48;;;;;;;7.20;5.47;;;896.90;1305.60;;;;;;4808093;29;20027;-87
2021/07/06 14:20:15;;;;;;;6.63;5.70;;;921.90;1356.80;;;;;;4808050;29;20027;-86
2021/07/06 14:22:42;;;;;;;12.57;7.90;;;921.70;1331.20;;;;;;4809017;29;20037;-84
2021/07/06 14:25:09;;;;;;;10.45;6.53;;;922.00;1331.20;;;;;;4807626;29;20038;-87
2021/07/06 14:27:35;;;;;;;8.85;5.43;;;921.70;1356.80;;;;;;4807828;29;20031;-84
2021/07/06 14:30:01;;;;;;;11.25;7.53;;;921.70;1305.60;;;;;;4807939;29;20486;-86
2021/07/06 14:32:27;;;;;;;9.38;6.95;;;896.90;1305.60;;;;;;4808033;29;20065;-85
2021/07/06 14:34:53;;;;;;;7.55;6.45;;;896.90;1305.60;;;;;;4822754;29;20054;-84
2021/07/06 14:37:20;;;;;;;10.60;6.20;;;921.70;1356.80;;;;;;4822618;29;20112;-84
2021/07/06 14:39:46;;;;;;;11.68;8.05;;;921.80;1356.80;;;;;;4808749;29;20156;-85
2021/07/06 14:42:12;;;;;;;11.85;10.45;;;896.80;1356.80;;;;;;4807335;29;20033;-86
2021/07/06 14:44:38;;;;;;;13.13;10.95;;;921.60;1356.80;;;;;;4807424;29;20035;-88
2021/07/06 14:47:05;;;;;;;12.68;11.43;;;896.90;1331.20;;;;;;4806802;29;20037;-85
2021/07/06 14:49:34;;;;;;;12.77;9.30;;;921.90;1356.80;;;;;;4792106;29;20114;-84
2021/07/06 14:52:00;;;;;;;9.73;7.07;;;921.70;1356.80;;;;;;4792342;29;20167;-84
2021/07/06 14:54:27;;;;;;;9.10;5.82;;;921.80;1356.80;;;;;;4792167;29;20093;-88
2021/07/06 14:56:54;;;;;;;9.10;6.97;;;921.80;1331.20;;;;;;4806742;29;20035;-86
2021/07/06 14:59:20;;;;;;;10.52;6.70;;;921.70;1356.80;;;;;;4808535;29;20018;-86
2021/07/06 15:01:46;;;;;;;8.10;6.18;;;921.60;1356.80;;;;;;4792003;29;20030;-84
2021/07/06 15:04:11;;;;;;;9.10;6.65;;;896.90;1331.20;;;;;;4791786;29;20046;-83
2021/07/06 15:06:37;;;;;;;8.25;6.40;;;896.50;1356.80;;;;;;4791837;29;20027;-84
2021/07/06 15:09:03;;;;;;;8.35;6.72;;;896.50;1356.80;;;;;;4791611;29;20375;-84
2021/07/06 15:11:29;;;;;;;8.00;6.85;;;896.40;1356.80;;;;;;4791923;29;20038;-86
2021/07/06 15:13:57;;;;;;;12.68;7.57;;;896.50;1382.40;;;;;;4791842;29;20031;-84
2021/07/06 15:16:24;;;;;;;9.00;6.72;;;896.70;1356.80;;;;;;4791697;29;20023;-85
2021/07/06 15:18:50;;;;;;;9.02;7.68;;;896.40;1382.40;;;;;;4791608;29;20045;-85
2021/07/06 15:21:16;;;;;;;8.07;6.78;;;896.40;1356.80;;;;;;4806254;29;20042;-84
2021/07/06 15:23:43;;;;;;;8.73;7.82;;;896.50;1382.40;;;;;;4791115;29;20027;-84
2021/07/06 15:26:10;;;;;;;9.57;8.40;;;896.40;1356.80;;;;;;4806320;29;20026;-85
2021/07/06 15:28:36;;;;;;;10.02;7.07;;;896.50;1356.80;;;;;;4791769;29;20027;-85
2021/07/06 15:31:02;;;;;;;11.25;6.70;;;896.30;1382.40;;;;;;4805717;29;20023;-84
2021/07/06 15:33:30;;;;;;;10.10;6.65;;;871.30;1382.40;;;;;;4790928;29;20376;-87
2021/07/06 15:36:03;;;;;;;7.65;6.85;;;871.10;1408.00;;;;;;4821944;29;20087;-85
2021/07/06 15:38:31;;;;;;;8.90;8.10;;;871.00;1408.00;;;;;;4806149;29;20377;-86
2021/07/06 15:40:58;;;;;;;9.18;8.02;;;870.90;1408.00;;;;;;4805996;29;20026;-84
2021/07/06 15:43:24;;;;;;;10.13;8.18;;;870.80;1408.00;;;;;;4806314;29;20027;-86
2021/07/06 15:45:50;;;;;;;9.30;7.43;;;870.80;1408.00;;;;;;4821535;29;20034;-85
2021/07/06 15:48:16;;;;;;;11.15;7.45;;;870.70;1408.00;;;;;;4806898;29;20022;-86
2021/07/06 15:50:42;;;;;;;8.95;7.05;;;870.70;1459.20;;;;;;4821380;29;20025;-87
2021/07/06 15:53:08;;;;;;;8.23;7.25;;;870.60;1433.60;;;;;;4821684;29;20049;-86
2021/07/06 15:55:34;;;;;;;11.43;7.43;;;870.50;1433.60;;;;;;4806346;29;20030;-87
2021/07/06 15:57:59;;;;;;;11.75;7.68;;;870.40;1433.60;;;;;;4821536;29;20033;-86
2021/07/06 16:00:26;;;;;;;15.10;7.63;;;845.70;1459.20;;;;;;4821538;29;20069;-86
2021/07/06 16:02:52;;;;;;;16.15;7.45;;;845.60;1484.80;;;;;;4821304;29;20031;-85
2021/07/06 16:05:19;;;;;;;10.52;7.40;;;845.40;1484.80;;;;;;4806154;29;20528;-85
2021/07/06 16:07:45;;;;;;;12.52;8.23;;;845.30;1484.80;;;;;;4806070;29;20034;-85
2021/07/06 16:10:13;;;;;;;11.27;7.65;;;845.20;1484.80;;;;;;4805547;29;20357;-86
2021/07/06 16:12:39;;;;;;;13.90;8.30;;;845.20;1484.80;;;;;;4805722;29;20175;-83
2021/07/06 16:15:06;;;;;;;10.95;7.95;;;845.20;1484.80;;;;;;4821072;29;20042;-83